Terminal Aerodrome Forecast
Issued by NWS

Current Version | Previous Version | Graphics & Text | Print | Product List | Glossary On
Versions: 1 2 3 4 5 6 7 8 9 10 11 12 13 14 15 16 17 18 19 20 21 22 23 24
000
FTUS41 KPBZ 261500 AAA
TAFMGW
TAF AMD
KMGW 261503Z 2615/2712 10008KT 6SM -RASN SCT005 OVC022
     FM262000 07010KT 1 1/2SM -SN OVC015
     FM270300 32008KT 5SM -SHSN BKN025
     FM270600 32006KT P6SM BKN015=

USA.gov is the U.S. government's official web portal to all federal, state and local government web resources and services.